sensor_id;sensor_type;location;lat;lon;timestamp;temperature;humidity
8605;DHT22;4340;52.516;13.468;2023-02-02T00:00:15;4.90;1.00
8605;DHT22;4340;52.516;13.468;2023-02-02T00:02:42;4.90;1.00
8605;DHT22;4340;52.516;13.468;2023-02-02T00:05:08;5.00;1.00
8605;DHT22;4340;52.516;13.468;2023-02-02T00:07:36;5.00;1.00
8605;DHT22;4340;52.516;13.468;2023-02-02T00:10:04;5.00;1.00
8605;DHT22;4340;52.516;13.468;2023-02-02T00:12:30;5.00;1.00
8605;DHT22;4340;52.516;13.468;2023-02-02T00:14:57;5.10;1.00
8605;DHT22;4340;52.516;13.468;2023-02-02T00:17:23;5.10;1.00
8605;DHT22;4340;52.516;13.468;2023-02-02T00:19:50;5.10;1.00
8605;DHT22;4340;52.516;13.468;2023-02-02T00:22:16;5.10;1.00
8605;DHT22;4340;52.516;13.468;2023-02-02T00:24:44;5.10;1.00
8605;DHT22;4340;52.516;13.468;2023-02-02T00:27:11;5.20;1.00
8605;DHT22;4340;52.516;13.468;2023-02-02T00:29:37;5.20;1.00
8605;DHT22;4340;52.516;13.468;2023-02-02T00:32:05;5.20;1.00
8605;DHT22;4340;52.516;13.468;2023-02-02T00:34:31;5.20;1.00
8605;DHT22;4340;52.516;13.468;2023-02-02T00:36:58;5.20;1.00
8605;DHT22;4340;52.516;13.468;2023-02-02T00:39:24;5.20;1.00
8605;DHT22;4340;52.516;13.468;2023-02-02T00:41:52;5.20;1.00
8605;DHT22;4340;52.516;13.468;2023-02-02T00:44:19;5.30;1.00
8605;DHT22;4340;52.516;13.468;2023-02-02T00:47:03;5.20;1.00
8605;DHT22;4340;52.516;13.468;2023-02-02T00:49:30;5.20;1.00
8605;DHT22;4340;52.516;13.468;2023-02-02T00:51:57;5.30;1.00
8605;DHT22;4340;52.516;13.468;2023-02-02T00:54:24;5.30;1.00
8605;DHT22;4340;52.516;13.468;2023-02-02T00:56:52;5.30;1.00
8605;DHT22;4340;52.516;13.468;2023-02-02T00:59:19;5.30;1.00
8605;DHT22;4340;52.516;13.468;2023-02-02T01:01:45;5.30;1.00
8605;DHT22;4340;52.516;13.468;2023-02-02T01:04:12;5.30;1.00
8605;DHT22;4340;52.516;13.468;2023-02-02T01:06:39;5.30;1.00
8605;DHT22;4340;52.516;13.468;2023-02-02T01:09:06;5.30;1.00
8605;DHT22;4340;52.516;13.468;2023-02-02T01:11:33;5.30;1.00
8605;DHT22;4340;52.516;13.468;2023-02-02T01:14:01;5.30;1.00
8605;DHT22;4340;52.516;13.468;2023-02-02T01:16:28;5.30;1.00
8605;DHT22;4340;52.516;13.468;2023-02-02T01:18:55;5.30;1.00
8605;DHT22;4340;52.516;13.468;2023-02-02T01:21:21;5.30;1.00
8605;DHT22;4340;52.516;13.468;2023-02-02T01:23:48;5.20;1.00
8605;DHT22;4340;52.516;13.468;2023-02-02T01:26:15;5.20;1.00
8605;DHT22;4340;52.516;13.468;2023-02-02T01:28:42;5.20;1.00
8605;DHT22;4340;52.516;13.468;2023-02-02T01:31:12;5.20;1.00
8605;DHT22;4340;52.516;13.468;2023-02-02T01:33:39;5.20;1.00
8605;DHT22;4340;52.516;13.468;2023-02-02T01:36:08;5.20;5.90
8605;DHT22;4340;52.516;13.468;2023-02-02T01:38:35;5.20;78.70
8605;DHT22;4340;52.516;13.468;2023-02-02T01:41:02;5.10;99.90
8605;DHT22;4340;52.516;13.468;2023-02-02T01:43:50;5.10;99.90
8605;DHT22;4340;52.516;13.468;2023-02-02T01:46:20;5.10;99.90
8605;DHT22;4340;52.516;13.468;2023-02-02T01:48:49;5.10;99.90
8605;DHT22;4340;52.516;13.468;2023-02-02T01:51:20;5.10;99.90
8605;DHT22;4340;52.516;13.468;2023-02-02T01:53:49;5.10;99.90
8605;DHT22;4340;52.516;13.468;2023-02-02T01:56:22;5.10;99.90
8605;DHT22;4340;52.516;13.468;2023-02-02T01:58:50;5.20;75.50
8605;DHT22;4340;52.516;13.468;2023-02-02T02:01:16;5.20;95.30
8605;DHT22;4340;52.516;13.468;2023-02-02T02:03:44;5.20;99.90
8605;DHT22;4340;52.516;13.468;2023-02-02T02:06:13;5.20;99.90
8605;DHT22;4340;52.516;13.468;2023-02-02T02:08:45;5.20;99.90
8605;DHT22;4340;52.516;13.468;2023-02-02T02:11:13;5.20;99.90
8605;DHT22;4340;52.516;13.468;2023-02-02T02:13:39;5.20;99.90
8605;DHT22;4340;52.516;13.468;2023-02-02T02:16:32;5.20;99.90
8605;DHT22;4340;52.516;13.468;2023-02-02T02:19:14;5.20;99.90
8605;DHT22;4340;52.516;13.468;2023-02-02T02:21:49;5.20;99.90
8605;DHT22;4340;52.516;13.468;2023-02-02T02:25:09;5.30;99.90
8605;DHT22;4340;52.516;13.468;2023-02-02T02:34:04;5.40;23.10
8605;DHT22;4340;52.516;13.468;2023-02-02T02:36:39;5.40;1.00
8605;DHT22;4340;52.516;13.468;2023-02-02T02:39:11;5.40;1.00
8605;DHT22;4340;52.516;13.468;2023-02-02T02:41:45;5.40;1.00
8605;DHT22;4340;52.516;13.468;2023-02-02T02:44:15;5.40;1.00
8605;DHT22;4340;52.516;13.468;2023-02-02T02:46:42;5.50;1.00
8605;DHT22;4340;52.516;13.468;2023-02-02T02:49:11;5.50;1.00
8605;DHT22;4340;52.516;13.468;2023-02-02T02:51:42;5.50;1.00
8605;DHT22;4340;52.516;13.468;2023-02-02T02:54:10;5.50;1.00
8605;DHT22;4340;52.516;13.468;2023-02-02T02:56:43;5.60;1.00
8605;DHT22;4340;52.516;13.468;2023-02-02T02:59:19;5.60;1.00
8605;DHT22;4340;52.516;13.468;2023-02-02T03:01:56;5.50;1.00
8605;DHT22;4340;52.516;13.468;2023-02-02T03:04:34;5.60;1.00
8605;DHT22;4340;52.516;13.468;2023-02-02T03:07:06;5.60;1.00
8605;DHT22;4340;52.516;13.468;2023-02-02T03:09:40;5.60;1.00
8605;DHT22;4340;52.516;13.468;2023-02-02T03:12:08;5.60;1.00
8605;DHT22;4340;52.516;13.468;2023-02-02T03:14:35;5.60;1.00
8605;DHT22;4340;52.516;13.468;2023-02-02T03:17:02;5.70;1.00
8605;DHT22;4340;52.516;13.468;2023-02-02T03:19:30;5.60;1.00
8605;DHT22;4340;52.516;13.468;2023-02-02T03:21:57;5.60;1.00
8605;DHT22;4340;52.516;13.468;2023-02-02T03:24:23;5.60;1.00
8605;DHT22;4340;52.516;13.468;2023-02-02T03:26:50;5.60;1.00
8605;DHT22;4340;52.516;13.468;2023-02-02T03:29:17;5.60;1.00
8605;DHT22;4340;52.516;13.468;2023-02-02T03:31:44;5.60;1.00
8605;DHT22;4340;52.516;13.468;2023-02-02T03:34:11;5.60;1.00
8605;DHT22;4340;52.516;13.468;2023-02-02T03:36:39;5.60;1.00
8605;DHT22;4340;52.516;13.468;2023-02-02T03:39:05;5.60;1.00
8605;DHT22;4340;52.516;13.468;2023-02-02T03:41:32;5.60;1.00
8605;DHT22;4340;52.516;13.468;2023-02-02T03:43:58;5.70;1.00
8605;DHT22;4340;52.516;13.468;2023-02-02T03:46:25;5.60;1.00
8605;DHT22;4340;52.516;13.468;2023-02-02T03:48:52;5.70;1.00
8605;DHT22;4340;52.516;13.468;2023-02-02T03:51:18;5.60;1.00
8605;DHT22;4340;52.516;13.468;2023-02-02T03:53:46;5.60;1.00
8605;DHT22;4340;52.516;13.468;2023-02-02T03:56:13;5.60;1.00
8605;DHT22;4340;52.516;13.468;2023-02-02T03:58:40;5.60;1.00
8605;DHT22;4340;52.516;13.468;2023-02-02T04:01:09;5.60;1.00
8605;DHT22;4340;52.516;13.468;2023-02-02T04:03:36;5.60;1.00
8605;DHT22;4340;52.516;13.468;2023-02-02T04:06:03;5.60;1.00
8605;DHT22;4340;52.516;13.468;2023-02-02T04:08:30;5.60;1.00
8605;DHT22;4340;52.516;13.468;2023-02-02T04:10:59;5.50;1.00
8605;DHT22;4340;52.516;13.468;2023-02-02T04:13:26;5.60;1.00
8605;DHT22;4340;52.516;13.468;2023-02-02T04:15:56;5.60;1.00
8605;DHT22;4340;52.516;13.468;2023-02-02T04:18:23;5.60;1.00
8605;DHT22;4340;52.516;13.468;2023-02-02T04:20:53;5.60;1.00
8605;DHT22;4340;52.516;13.468;2023-02-02T04:23:20;5.60;1.00
8605;DHT22;4340;52.516;13.468;2023-02-02T04:25:48;5.60;1.00
8605;DHT22;4340;52.516;13.468;2023-02-02T04:28:16;5.60;1.00
8605;DHT22;4340;52.516;13.468;2023-02-02T04:30:43;5.60;1.00
8605;DHT22;4340;52.516;13.468;2023-02-02T04:33:10;5.60;1.00
8605;DHT22;4340;52.516;13.468;2023-02-02T04:35:36;5.60;1.00
8605;DHT22;4340;52.516;13.468;2023-02-02T04:38:03;5.60;1.00
8605;DHT22;4340;52.516;13.468;2023-02-02T04:40:29;5.60;1.00
8605;DHT22;4340;52.516;13.468;2023-02-02T04:42:56;5.60;1.00
8605;DHT22;4340;52.516;13.468;2023-02-02T04:45:24;5.60;1.00
8605;DHT22;4340;52.516;13.468;2023-02-02T04:47:51;5.60;1.00
8605;DHT22;4340;52.516;13.468;2023-02-02T04:50:17;5.60;1.00
8605;DHT22;4340;52.516;13.468;2023-02-02T04:52:44;5.60;1.00
8605;DHT22;4340;52.516;13.468;2023-02-02T04:55:10;5.60;1.00
8605;DHT22;4340;52.516;13.468;2023-02-02T04:57:37;5.60;1.00
8605;DHT22;4340;52.516;13.468;2023-02-02T05:00:04;5.60;1.00
8605;DHT22;4340;52.516;13.468;2023-02-02T05:02:36;5.60;1.00
8605;DHT22;4340;52.516;13.468;2023-02-02T05:05:04;5.60;1.00
8605;DHT22;4340;52.516;13.468;2023-02-02T05:07:31;5.60;1.00
8605;DHT22;4340;52.516;13.468;2023-02-02T05:09:57;5.60;1.00
8605;DHT22;4340;52.516;13.468;2023-02-02T05:12:24;5.60;1.00
8605;DHT22;4340;52.516;13.468;2023-02-02T05:14:51;5.60;1.00
8605;DHT22;4340;52.516;13.468;2023-02-02T05:17:17;5.60;1.00
8605;DHT22;4340;52.516;13.468;2023-02-02T05:19:45;5.60;1.00
8605;DHT22;4340;52.516;13.468;2023-02-02T05:22:12;5.50;1.00
8605;DHT22;4340;52.516;13.468;2023-02-02T05:24:38;5.50;1.00
8605;DHT22;4340;52.516;13.468;2023-02-02T05:27:05;5.60;1.00
8605;DHT22;4340;52.516;13.468;2023-02-02T05:29:31;5.50;1.00
8605;DHT22;4340;52.516;13.468;2023-02-02T05:31:58;5.50;1.00
8605;DHT22;4340;52.516;13.468;2023-02-02T05:34:25;5.50;1.00
8605;DHT22;4340;52.516;13.468;2023-02-02T05:36:53;5.50;1.00
8605;DHT22;4340;52.516;13.468;2023-02-02T05:39:20;5.50;1.00
8605;DHT22;4340;52.516;13.468;2023-02-02T05:41:46;5.50;1.00
8605;DHT22;4340;52.516;13.468;2023-02-02T05:44:14;5.50;1.00
8605;DHT22;4340;52.516;13.468;2023-02-02T05:46:40;5.50;1.00
8605;DHT22;4340;52.516;13.468;2023-02-02T05:49:11;5.50;1.00
8605;DHT22;4340;52.516;13.468;2023-02-02T05:51:40;5.50;1.00
8605;DHT22;4340;52.516;13.468;2023-02-02T05:54:09;5.50;1.00
8605;DHT22;4340;52.516;13.468;2023-02-02T05:56:35;5.50;1.00
8605;DHT22;4340;52.516;13.468;2023-02-02T05:59:02;5.50;1.00
8605;DHT22;4340;52.516;13.468;2023-02-02T06:01:32;5.50;1.00
8605;DHT22;4340;52.516;13.468;2023-02-02T06:03:59;5.50;1.00
8605;DHT22;4340;52.516;13.468;2023-02-02T06:06:25;5.50;1.00
8605;DHT22;4340;52.516;13.468;2023-02-02T06:08:52;5.50;1.00
8605;DHT22;4340;52.516;13.468;2023-02-02T06:11:20;5.60;1.00
8605;DHT22;4340;52.516;13.468;2023-02-02T06:13:46;5.50;1.00
8605;DHT22;4340;52.516;13.468;2023-02-02T06:16:13;5.60;1.00
8605;DHT22;4340;52.516;13.468;2023-02-02T06:18:39;5.50;1.00
8605;DHT22;4340;52.516;13.468;2023-02-02T06:21:06;5.50;1.00
8605;DHT22;4340;52.516;13.468;2023-02-02T06:23:33;5.50;1.00
8605;DHT22;4340;52.516;13.468;2023-02-02T06:26:00;5.50;1.00
8605;DHT22;4340;52.516;13.468;2023-02-02T06:28:29;5.50;1.00
8605;DHT22;4340;52.516;13.468;2023-02-02T06:30:55;5.50;1.00
8605;DHT22;4340;52.516;13.468;2023-02-02T06:33:22;5.50;1.00
8605;DHT22;4340;52.516;13.468;2023-02-02T06:35:49;5.60;1.00
8605;DHT22;4340;52.516;13.468;2023-02-02T06:38:15;5.60;1.00
8605;DHT22;4340;52.516;13.468;2023-02-02T06:40:43;5.60;1.00
8605;DHT22;4340;52.516;13.468;2023-02-02T06:43:09;5.60;1.00
8605;DHT22;4340;52.516;13.468;2023-02-02T06:45:40;5.60;1.00
8605;DHT22;4340;52.516;13.468;2023-02-02T06:48:07;5.50;1.00
8605;DHT22;4340;52.516;13.468;2023-02-02T06:50:40;5.60;1.00
8605;DHT22;4340;52.516;13.468;2023-02-02T06:53:07;5.50;1.00
8605;DHT22;4340;52.516;13.468;2023-02-02T06:55:34;5.60;1.00
8605;DHT22;4340;52.516;13.468;2023-02-02T06:58:01;5.50;1.00
8605;DHT22;4340;52.516;13.468;2023-02-02T07:00:28;5.50;1.00
8605;DHT22;4340;52.516;13.468;2023-02-02T07:02:56;5.50;1.00
8605;DHT22;4340;52.516;13.468;2023-02-02T07:05:23;5.50;1.00
8605;DHT22;4340;52.516;13.468;2023-02-02T07:07:50;5.60;1.00
8605;DHT22;4340;52.516;13.468;2023-02-02T07:10:17;5.50;1.00
8605;DHT22;4340;52.516;13.468;2023-02-02T07:12:44;5.50;1.00
8605;DHT22;4340;52.516;13.468;2023-02-02T07:15:11;5.50;1.00
8605;DHT22;4340;52.516;13.468;2023-02-02T07:17:37;5.60;1.00
8605;DHT22;4340;52.516;13.468;2023-02-02T07:20:06;5.60;1.00
8605;DHT22;4340;52.516;13.468;2023-02-02T07:22:33;5.60;1.00
8605;DHT22;4340;52.516;13.468;2023-02-02T07:25:00;5.60;1.00
8605;DHT22;4340;52.516;13.468;2023-02-02T07:27:27;5.60;1.00
8605;DHT22;4340;52.516;13.468;2023-02-02T07:29:53;5.60;1.00
8605;DHT22;4340;52.516;13.468;2023-02-02T07:32:20;5.60;1.00
8605;DHT22;4340;52.516;13.468;2023-02-02T07:34:46;5.60;1.00
8605;DHT22;4340;52.516;13.468;2023-02-02T07:37:14;5.60;1.00
8605;DHT22;4340;52.516;13.468;2023-02-02T07:39:41;5.60;1.00
8605;DHT22;4340;52.516;13.468;2023-02-02T07:42:10;5.50;1.00
8605;DHT22;4340;52.516;13.468;2023-02-02T07:44:36;5.50;1.00
8605;DHT22;4340;52.516;13.468;2023-02-02T07:47:03;5.50;1.00
8605;DHT22;4340;52.516;13.468;2023-02-02T07:49:29;5.50;1.00
8605;DHT22;4340;52.516;13.468;2023-02-02T07:51:56;5.50;1.00
8605;DHT22;4340;52.516;13.468;2023-02-02T07:54:24;5.50;1.00
8605;DHT22;4340;52.516;13.468;2023-02-02T07:56:51;5.50;1.00
8605;DHT22;4340;52.516;13.468;2023-02-02T07:59:17;5.50;1.00
8605;DHT22;4340;52.516;13.468;2023-02-02T08:01:44;5.50;1.00
8605;DHT22;4340;52.516;13.468;2023-02-02T08:04:10;5.50;1.00
8605;DHT22;4340;52.516;13.468;2023-02-02T08:06:38;5.50;1.00
8605;DHT22;4340;52.516;13.468;2023-02-02T08:09:07;5.50;1.00
8605;DHT22;4340;52.516;13.468;2023-02-02T08:11:36;5.50;1.00
8605;DHT22;4340;52.516;13.468;2023-02-02T08:14:03;5.50;1.00
8605;DHT22;4340;52.516;13.468;2023-02-02T08:16:31;5.50;1.00
8605;DHT22;4340;52.516;13.468;2023-02-02T08:18:58;5.50;1.00
8605;DHT22;4340;52.516;13.468;2023-02-02T08:21:25;5.50;1.00
8605;DHT22;4340;52.516;13.468;2023-02-02T08:23:52;5.60;1.00
8605;DHT22;4340;52.516;13.468;2023-02-02T08:26:20;5.70;1.00
8605;DHT22;4340;52.516;13.468;2023-02-02T08:28:51;5.70;1.00
8605;DHT22;4340;52.516;13.468;2023-02-02T08:31:20;5.70;1.00
8605;DHT22;4340;52.516;13.468;2023-02-02T08:33:48;5.80;1.00
8605;DHT22;4340;52.516;13.468;2023-02-02T08:36:16;5.80;1.00
8605;DHT22;4340;52.516;13.468;2023-02-02T08:38:43;5.90;1.00
8605;DHT22;4340;52.516;13.468;2023-02-02T08:41:12;5.90;1.00
8605;DHT22;4340;52.516;13.468;2023-02-02T08:43:39;5.90;1.00
8605;DHT22;4340;52.516;13.468;2023-02-02T08:46:09;5.90;1.00
8605;DHT22;4340;52.516;13.468;2023-02-02T08:48:37;5.80;1.00
8605;DHT22;4340;52.516;13.468;2023-02-02T08:51:04;5.80;1.00
8605;DHT22;4340;52.516;13.468;2023-02-02T08:53:32;5.90;1.00
8605;DHT22;4340;52.516;13.468;2023-02-02T08:55:59;5.90;1.00
8605;DHT22;4340;52.516;13.468;2023-02-02T08:58:27;6.00;1.00
8605;DHT22;4340;52.516;13.468;2023-02-02T09:00:53;6.00;1.00
8605;DHT22;4340;52.516;13.468;2023-02-02T09:03:21;6.10;1.00
8605;DHT22;4340;52.516;13.468;2023-02-02T09:05:48;6.00;1.00
8605;DHT22;4340;52.516;13.468;2023-02-02T09:08:14;6.10;1.00
8605;DHT22;4340;52.516;13.468;2023-02-02T09:10:41;6.20;1.00
8605;DHT22;4340;52.516;13.468;2023-02-02T09:13:07;6.20;1.00
8605;DHT22;4340;52.516;13.468;2023-02-02T09:15:34;6.20;1.00
8605;DHT22;4340;52.516;13.468;2023-02-02T09:18:00;6.20;1.00
8605;DHT22;4340;52.516;13.468;2023-02-02T09:20:29;6.20;1.00
8605;DHT22;4340;52.516;13.468;2023-02-02T09:22:56;6.20;1.00
8605;DHT22;4340;52.516;13.468;2023-02-02T09:25:23;6.20;1.00
8605;DHT22;4340;52.516;13.468;2023-02-02T09:27:51;6.20;1.00
8605;DHT22;4340;52.516;13.468;2023-02-02T09:30:18;6.30;1.00
8605;DHT22;4340;52.516;13.468;2023-02-02T09:32:47;6.40;1.00
8605;DHT22;4340;52.516;13.468;2023-02-02T09:35:14;6.40;1.00
8605;DHT22;4340;52.516;13.468;2023-02-02T09:37:42;6.40;1.00
8605;DHT22;4340;52.516;13.468;2023-02-02T09:40:13;6.40;1.00
8605;DHT22;4340;52.516;13.468;2023-02-02T09:42:51;6.30;1.00
8605;DHT22;4340;52.516;13.468;2023-02-02T09:45:24;6.40;1.00
8605;DHT22;4340;52.516;13.468;2023-02-02T09:47:54;6.40;1.00
8605;DHT22;4340;52.516;13.468;2023-02-02T09:50:36;6.40;1.00
8605;DHT22;4340;52.516;13.468;2023-02-02T09:53:12;6.50;1.00
8605;DHT22;4340;52.516;13.468;2023-02-02T09:55:43;6.50;1.00
8605;DHT22;4340;52.516;13.468;2023-02-02T09:58:13;6.40;1.00
8605;DHT22;4340;52.516;13.468;2023-02-02T10:00:45;6.50;1.00
8605;DHT22;4340;52.516;13.468;2023-02-02T10:03:16;6.40;1.00
8605;DHT22;4340;52.516;13.468;2023-02-02T10:05:50;6.60;1.00
8605;DHT22;4340;52.516;13.468;2023-02-02T10:08:23;6.60;1.00
8605;DHT22;4340;52.516;13.468;2023-02-02T10:10:51;6.60;1.00
8605;DHT22;4340;52.516;13.468;2023-02-02T10:13:23;6.60;1.00
8605;DHT22;4340;52.516;13.468;2023-02-02T10:15:55;6.60;1.00
8605;DHT22;4340;52.516;13.468;2023-02-02T10:18:33;6.50;1.00
8605;DHT22;4340;52.516;13.468;2023-02-02T10:21:03;6.50;1.00
8605;DHT22;4340;52.516;13.468;2023-02-02T10:23:35;6.50;1.00
8605;DHT22;4340;52.516;13.468;2023-02-02T10:26:07;6.50;1.00
8605;DHT22;4340;52.516;13.468;2023-02-02T10:28:42;6.60;1.00
8605;DHT22;4340;52.516;13.468;2023-02-02T10:31:16;6.50;1.00
8605;DHT22;4340;52.516;13.468;2023-02-02T10:33:48;6.60;1.00
8605;DHT22;4340;52.516;13.468;2023-02-02T10:36:23;6.50;1.00
8605;DHT22;4340;52.516;13.468;2023-02-02T10:39:02;6.50;1.00
8605;DHT22;4340;52.516;13.468;2023-02-02T10:41:35;6.60;1.00
8605;DHT22;4340;52.516;13.468;2023-02-02T10:44:16;6.70;1.00
8605;DHT22;4340;52.516;13.468;2023-02-02T10:46:45;6.90;1.00
8605;DHT22;4340;52.516;13.468;2023-02-02T10:49:25;6.90;1.00
8605;DHT22;4340;52.516;13.468;2023-02-02T10:51:56;7.00;1.00
8605;DHT22;4340;52.516;13.468;2023-02-02T10:54:36;7.20;1.00
8605;DHT22;4340;52.516;13.468;2023-02-02T10:57:07;7.20;1.00
8605;DHT22;4340;52.516;13.468;2023-02-02T10:59:40;7.10;1.00
8605;DHT22;4340;52.516;13.468;2023-02-02T11:02:10;7.10;1.00
8605;DHT22;4340;52.516;13.468;2023-02-02T11:04:37;7.10;1.00
8605;DHT22;4340;52.516;13.468;2023-02-02T11:07:21;7.00;1.00
8605;DHT22;4340;52.516;13.468;2023-02-02T11:09:50;6.90;1.00
8605;DHT22;4340;52.516;13.468;2023-02-02T11:12:22;6.90;1.00
8605;DHT22;4340;52.516;13.468;2023-02-02T11:14:55;7.00;1.00
8605;DHT22;4340;52.516;13.468;2023-02-02T11:17:23;7.00;1.00
8605;DHT22;4340;52.516;13.468;2023-02-02T11:19:51;7.00;1.00
8605;DHT22;4340;52.516;13.468;2023-02-02T11:22:30;7.00;1.00
8605;DHT22;4340;52.516;13.468;2023-02-02T11:25:00;7.20;1.00
8605;DHT22;4340;52.516;13.468;2023-02-02T11:27:30;7.30;1.00
8605;DHT22;4340;52.516;13.468;2023-02-02T11:30:00;7.30;1.00
8605;DHT22;4340;52.516;13.468;2023-02-02T11:32:35;7.20;1.00
8605;DHT22;4340;52.516;13.468;2023-02-02T11:35:22;7.20;1.00
8605;DHT22;4340;52.516;13.468;2023-02-02T11:37:55;7.20;1.00
8605;DHT22;4340;52.516;13.468;2023-02-02T11:40:33;7.10;1.00
8605;DHT22;4340;52.516;13.468;2023-02-02T11:43:03;7.10;1.00
8605;DHT22;4340;52.516;13.468;2023-02-02T11:45:34;7.10;1.00
8605;DHT22;4340;52.516;13.468;2023-02-02T11:48:05;7.20;1.00
8605;DHT22;4340;52.516;13.468;2023-02-02T11:50:33;7.30;1.00
8605;DHT22;4340;52.516;13.468;2023-02-02T11:53:00;7.20;1.00
8605;DHT22;4340;52.516;13.468;2023-02-02T11:55:28;7.20;1.00
8605;DHT22;4340;52.516;13.468;2023-02-02T11:58:19;7.10;1.00
8605;DHT22;4340;52.516;13.468;2023-02-02T12:00:50;7.20;1.00
8605;DHT22;4340;52.516;13.468;2023-02-02T12:03:24;7.20;1.00
8605;DHT22;4340;52.516;13.468;2023-02-02T12:05:51;7.20;1.00
8605;DHT22;4340;52.516;13.468;2023-02-02T12:08:18;7.30;1.00
8605;DHT22;4340;52.516;13.468;2023-02-02T12:10:50;7.30;1.00
8605;DHT22;4340;52.516;13.468;2023-02-02T12:13:30;7.30;1.00
8605;DHT22;4340;52.516;13.468;2023-02-02T12:16:10;7.20;1.00
8605;DHT22;4340;52.516;13.468;2023-02-02T12:18:48;7.10;1.00
8605;DHT22;4340;52.516;13.468;2023-02-02T12:21:21;6.80;1.00
8605;DHT22;4340;52.516;13.468;2023-02-02T12:24:01;7.00;1.00
8605;DHT22;4340;52.516;13.468;2023-02-02T12:26:33;7.00;1.00
8605;DHT22;4340;52.516;13.468;2023-02-02T12:29:21;7.10;1.00
8605;DHT22;4340;52.516;13.468;2023-02-02T12:32:00;6.90;1.00
8605;DHT22;4340;52.516;13.468;2023-02-02T12:34:36;6.80;1.00
8605;DHT22;4340;52.516;13.468;2023-02-02T12:37:12;6.60;1.00
8605;DHT22;4340;52.516;13.468;2023-02-02T12:39:51;6.50;1.00
8605;DHT22;4340;52.516;13.468;2023-02-02T12:42:33;6.50;1.00
8605;DHT22;4340;52.516;13.468;2023-02-02T12:45:24;6.60;1.00
8605;DHT22;4340;52.516;13.468;2023-02-02T12:48:07;6.50;1.00
8605;DHT22;4340;52.516;13.468;2023-02-02T12:50:40;6.50;1.00
8605;DHT22;4340;52.516;13.468;2023-02-02T12:53:23;6.70;1.00
8605;DHT22;4340;52.516;13.468;2023-02-02T12:55:59;6.70;1.00
8605;DHT22;4340;52.516;13.468;2023-02-02T12:58:35;6.60;1.00
8605;DHT22;4340;52.516;13.468;2023-02-02T13:01:14;6.70;1.00
8605;DHT22;4340;52.516;13.468;2023-02-02T13:04:01;6.80;1.00
8605;DHT22;4340;52.516;13.468;2023-02-02T13:09:29;6.80;1.00
8605;DHT22;4340;52.516;13.468;2023-02-02T13:11:59;7.00;1.00
8605;DHT22;4340;52.516;13.468;2023-02-02T13:14:30;7.10;1.00
8605;DHT22;4340;52.516;13.468;2023-02-02T13:17:04;7.00;1.00
8605;DHT22;4340;52.516;13.468;2023-02-02T13:19:35;7.10;1.00
8605;DHT22;4340;52.516;13.468;2023-02-02T13:22:06;7.00;1.00
8605;DHT22;4340;52.516;13.468;2023-02-02T13:24:37;6.90;1.00
8605;DHT22;4340;52.516;13.468;2023-02-02T13:27:06;6.90;1.00
8605;DHT22;4340;52.516;13.468;2023-02-02T13:29:40;7.00;1.00
8605;DHT22;4340;52.516;13.468;2023-02-02T13:32:18;7.00;1.00
8605;DHT22;4340;52.516;13.468;2023-02-02T13:34:49;7.10;1.00
8605;DHT22;4340;52.516;13.468;2023-02-02T13:37:19;7.00;1.00
8605;DHT22;4340;52.516;13.468;2023-02-02T13:39:55;6.90;1.00
8605;DHT22;4340;52.516;13.468;2023-02-02T13:42:27;6.90;1.00
8605;DHT22;4340;52.516;13.468;2023-02-02T13:45:00;6.90;1.00
8605;DHT22;4340;52.516;13.468;2023-02-02T13:47:35;6.80;1.00
8605;DHT22;4340;52.516;13.468;2023-02-02T13:50:05;6.70;1.00
8605;DHT22;4340;52.516;13.468;2023-02-02T13:52:50;6.70;1.00
8605;DHT22;4340;52.516;13.468;2023-02-02T13:55:38;6.60;1.00
8605;DHT22;4340;52.516;13.468;2023-02-02T13:58:43;6.50;1.00
8605;DHT22;4340;52.516;13.468;2023-02-02T14:01:17;6.40;1.00
8605;DHT22;4340;52.516;13.468;2023-02-02T14:03:52;6.30;1.00
8605;DHT22;4340;52.516;13.468;2023-02-02T14:06:20;6.20;1.00
8605;DHT22;4340;52.516;13.468;2023-02-02T14:08:51;6.20;1.00
8605;DHT22;4340;52.516;13.468;2023-02-02T14:11:21;6.20;1.00
8605;DHT22;4340;52.516;13.468;2023-02-02T14:13:51;6.10;1.00
8605;DHT22;4340;52.516;13.468;2023-02-02T14:16:53;6.10;1.00
8605;DHT22;4340;52.516;13.468;2023-02-02T14:19:47;6.10;1.00
8605;DHT22;4340;52.516;13.468;2023-02-02T14:22:18;6.00;1.00
8605;DHT22;4340;52.516;13.468;2023-02-02T14:24:47;6.00;1.00
8605;DHT22;4340;52.516;13.468;2023-02-02T14:27:39;6.00;1.00
8605;DHT22;4340;52.516;13.468;2023-02-02T14:30:20;6.00;1.00
8605;DHT22;4340;52.516;13.468;2023-02-02T14:32:47;5.90;1.00
8605;DHT22;4340;52.516;13.468;2023-02-02T14:38:17;6.00;1.00
8605;DHT22;4340;52.516;13.468;2023-02-02T14:40:54;5.90;1.00
8605;DHT22;4340;52.516;13.468;2023-02-02T14:43:32;5.90;1.00
8605;DHT22;4340;52.516;13.468;2023-02-02T14:46:38;5.90;1.00
8605;DHT22;4340;52.516;13.468;2023-02-02T14:49:08;5.90;1.00
8605;DHT22;4340;52.516;13.468;2023-02-02T14:51:55;5.90;1.00
8605;DHT22;4340;52.516;13.468;2023-02-02T14:54:29;5.80;1.00
8605;DHT22;4340;52.516;13.468;2023-02-02T14:57:00;5.80;1.00
8605;DHT22;4340;52.516;13.468;2023-02-02T14:59:31;5.80;1.00
8605;DHT22;4340;52.516;13.468;2023-02-02T15:02:14;5.80;1.00
8605;DHT22;4340;52.516;13.468;2023-02-02T15:04:42;5.80;1.00
8605;DHT22;4340;52.516;13.468;2023-02-02T15:07:35;5.70;1.00
8605;DHT22;4340;52.516;13.468;2023-02-02T15:10:04;5.70;1.00
8605;DHT22;4340;52.516;13.468;2023-02-02T15:12:34;5.60;1.00
8605;DHT22;4340;52.516;13.468;2023-02-02T15:15:17;5.60;1.00
8605;DHT22;4340;52.516;13.468;2023-02-02T15:18:01;5.70;1.00
8605;DHT22;4340;52.516;13.468;2023-02-02T15:20:34;5.60;1.00
8605;DHT22;4340;52.516;13.468;2023-02-02T15:23:04;5.60;1.00
8605;DHT22;4340;52.516;13.468;2023-02-02T15:25:39;5.60;1.00
8605;DHT22;4340;52.516;13.468;2023-02-02T15:28:16;5.50;1.00
8605;DHT22;4340;52.516;13.468;2023-02-02T15:30:50;5.50;1.00
8605;DHT22;4340;52.516;13.468;2023-02-02T15:33:25;5.40;1.00
8605;DHT22;4340;52.516;13.468;2023-02-02T15:35:55;5.40;1.00
8605;DHT22;4340;52.516;13.468;2023-02-02T15:38:25;5.30;1.00
8605;DHT22;4340;52.516;13.468;2023-02-02T15:41:02;5.30;1.00
8605;DHT22;4340;52.516;13.468;2023-02-02T15:43:29;5.20;1.00
8605;DHT22;4340;52.516;13.468;2023-02-02T15:46:01;5.20;1.00
8605;DHT22;4340;52.516;13.468;2023-02-02T15:48:30;5.20;1.00
8605;DHT22;4340;52.516;13.468;2023-02-02T15:51:00;5.20;1.00
8605;DHT22;4340;52.516;13.468;2023-02-02T15:53:32;5.10;1.00
8605;DHT22;4340;52.516;13.468;2023-02-02T15:56:17;5.00;1.00
8605;DHT22;4340;52.516;13.468;2023-02-02T15:58:46;5.00;1.00
8605;DHT22;4340;52.516;13.468;2023-02-02T16:01:15;4.90;1.00
8605;DHT22;4340;52.516;13.468;2023-02-02T16:03:46;4.90;1.00
8605;DHT22;4340;52.516;13.468;2023-02-02T16:06:14;4.90;1.00
8605;DHT22;4340;52.516;13.468;2023-02-02T16:08:42;4.90;1.00
8605;DHT22;4340;52.516;13.468;2023-02-02T16:11:12;4.90;1.00
8605;DHT22;4340;52.516;13.468;2023-02-02T16:13:41;4.80;1.00
8605;DHT22;4340;52.516;13.468;2023-02-02T16:16:21;4.80;1.00
8605;DHT22;4340;52.516;13.468;2023-02-02T16:19:04;4.70;1.00
8605;DHT22;4340;52.516;13.468;2023-02-02T16:21:32;4.70;1.00
8605;DHT22;4340;52.516;13.468;2023-02-02T16:23:59;4.70;1.00
8605;DHT22;4340;52.516;13.468;2023-02-02T16:26:30;4.60;1.00
8605;DHT22;4340;52.516;13.468;2023-02-02T16:28:58;4.60;1.00
8605;DHT22;4340;52.516;13.468;2023-02-02T16:31:25;4.50;1.00
8605;DHT22;4340;52.516;13.468;2023-02-02T16:33:55;4.50;1.00
8605;DHT22;4340;52.516;13.468;2023-02-02T16:36:26;4.50;1.00
8605;DHT22;4340;52.516;13.468;2023-02-02T16:38:54;4.50;1.00
8605;DHT22;4340;52.516;13.468;2023-02-02T16:41:27;4.40;1.00
8605;DHT22;4340;52.516;13.468;2023-02-02T16:43:55;4.40;1.00
8605;DHT22;4340;52.516;13.468;2023-02-02T16:46:44;4.40;1.00
8605;DHT22;4340;52.516;13.468;2023-02-02T16:49:15;4.30;1.00
8605;DHT22;4340;52.516;13.468;2023-02-02T16:51:44;4.30;1.00